sensor_id;sensor_type;location;lat;lon;timestamp;temperature;humidity
39401;SHT31;75540;50.000;7.360;2024-02-16T00:00:24;10.38;79.56
39401;SHT31;75540;50.000;7.360;2024-02-16T00:02:53;10.37;79.61
39401;SHT31;75540;50.000;7.360;2024-02-16T00:05:21;10.27;80.16
39401;SHT31;75540;50.000;7.360;2024-02-16T00:07:49;10.33;79.75
39401;SHT31;75540;50.000;7.360;2024-02-16T00:10:19;10.44;79.32
39401;SHT31;75540;50.000;7.360;2024-02-16T00:12:49;10.44;79.31
39401;SHT31;75540;50.000;7.360;2024-02-16T00:15:17;10.48;79.01
39401;SHT31;75540;50.000;7.360;2024-02-16T00:17:45;10.51;79.06
39401;SHT31;75540;50.000;7.360;2024-02-16T00:20:14;10.45;79.38
39401;SHT31;75540;50.000;7.360;2024-02-16T00:22:42;10.35;79.78
39401;SHT31;75540;50.000;7.360;2024-02-16T00:25:11;10.35;79.68
39401;SHT31;75540;50.000;7.360;2024-02-16T00:27:41;10.44;79.32
39401;SHT31;75540;50.000;7.360;2024-02-16T00:30:10;10.51;79.16
39401;SHT31;75540;50.000;7.360;2024-02-16T00:32:38;10.42;79.24
39401;SHT31;75540;50.000;7.360;2024-02-16T00:35:07;10.52;78.99
39401;SHT31;75540;50.000;7.360;2024-02-16T00:37:35;10.48;79.09
39401;SHT31;75540;50.000;7.360;2024-02-16T00:40:06;10.52;78.94
39401;SHT31;75540;50.000;7.360;2024-02-16T00:42:34;10.46;79.08
39401;SHT31;75540;50.000;7.360;2024-02-16T00:45:05;10.49;79.06
39401;SHT31;75540;50.000;7.360;2024-02-16T00:47:33;10.42;79.21
39401;SHT31;75540;50.000;7.360;2024-02-16T00:50:02;10.51;79.01
39401;SHT31;75540;50.000;7.360;2024-02-16T00:52:32;10.52;78.89
39401;SHT31;75540;50.000;7.360;2024-02-16T00:55:00;10.48;79.21
39401;SHT31;75540;50.000;7.360;2024-02-16T00:57:31;10.48;79.21
39401;SHT31;75540;50.000;7.360;2024-02-16T01:00:01;10.44;79.48
39401;SHT31;75540;50.000;7.360;2024-02-16T01:02:32;10.40;79.53
39401;SHT31;75540;50.000;7.360;2024-02-16T01:05:00;10.33;79.76
39401;SHT31;75540;50.000;7.360;2024-02-16T01:07:30;10.44;79.53
39401;SHT31;75540;50.000;7.360;2024-02-16T01:09:59;10.41;79.60
39401;SHT31;75540;50.000;7.360;2024-02-16T01:12:30;10.49;79.40
39401;SHT31;75540;50.000;7.360;2024-02-16T01:14:59;10.45;79.51
39401;SHT31;75540;50.000;7.360;2024-02-16T01:17:28;10.49;79.46
39401;SHT31;75540;50.000;7.360;2024-02-16T01:20:01;10.45;79.52
39401;SHT31;75540;50.000;7.360;2024-02-16T01:22:31;10.44;79.72
39401;SHT31;75540;50.000;7.360;2024-02-16T01:24:59;10.40;79.95
39401;SHT31;75540;50.000;7.360;2024-02-16T01:27:28;10.37;80.04
39401;SHT31;75540;50.000;7.360;2024-02-16T01:29:56;10.38;80.03
39401;SHT31;75540;50.000;7.360;2024-02-16T01:32:24;10.41;79.95
39401;SHT31;75540;50.000;7.360;2024-02-16T01:34:53;10.46;79.90
39401;SHT31;75540;50.000;7.360;2024-02-16T01:37:22;10.56;79.40
39401;SHT31;75540;50.000;7.360;2024-02-16T01:39:51;10.48;79.79
39401;SHT31;75540;50.000;7.360;2024-02-16T01:42:19;10.51;79.74
39401;SHT31;75540;50.000;7.360;2024-02-16T01:44:48;10.49;79.90
39401;SHT31;75540;50.000;7.360;2024-02-16T01:47:18;10.62;79.31
39401;SHT31;75540;50.000;7.360;2024-02-16T01:49:47;10.62;79.48
39401;SHT31;75540;50.000;7.360;2024-02-16T01:52:16;10.59;79.48
39401;SHT31;75540;50.000;7.360;2024-02-16T01:54:46;10.61;79.44
39401;SHT31;75540;50.000;7.360;2024-02-16T01:57:14;10.61;79.67
39401;SHT31;75540;50.000;7.360;2024-02-16T01:59:43;10.66;79.44
39401;SHT31;75540;50.000;7.360;2024-02-16T02:02:12;10.62;79.53
39401;SHT31;75540;50.000;7.360;2024-02-16T02:04:41;10.68;79.54
39401;SHT31;75540;50.000;7.360;2024-02-16T02:07:13;10.62;79.66
39401;SHT31;75540;50.000;7.360;2024-02-16T02:09:42;10.54;80.24
39401;SHT31;75540;50.000;7.360;2024-02-16T02:12:12;10.59;80.03
39401;SHT31;75540;50.000;7.360;2024-02-16T02:14:40;10.49;80.31
39401;SHT31;75540;50.000;7.360;2024-02-16T02:17:09;10.56;80.31
39401;SHT31;75540;50.000;7.360;2024-02-16T02:19:37;10.56;80.14
39401;SHT31;75540;50.000;7.360;2024-02-16T02:22:13;10.64;80.11
39401;SHT31;75540;50.000;7.360;2024-02-16T02:24:42;10.49;80.59
39401;SHT31;75540;50.000;7.360;2024-02-16T02:27:11;10.58;80.28
39401;SHT31;75540;50.000;7.360;2024-02-16T02:29:40;10.55;80.45
39401;SHT31;75540;50.000;7.360;2024-02-16T02:32:08;10.55;80.56
39401;SHT31;75540;50.000;7.360;2024-02-16T02:34:37;10.51;80.64
39401;SHT31;75540;50.000;7.360;2024-02-16T02:37:06;10.54;80.57
39401;SHT31;75540;50.000;7.360;2024-02-16T02:39:37;10.51;81.18
39401;SHT31;75540;50.000;7.360;2024-02-16T02:42:06;10.41;81.55
39401;SHT31;75540;50.000;7.360;2024-02-16T02:44:35;10.31;81.94
39401;SHT31;75540;50.000;7.360;2024-02-16T02:47:04;10.27;82.44
39401;SHT31;75540;50.000;7.360;2024-02-16T02:49:32;10.27;82.42
39401;SHT31;75540;50.000;7.360;2024-02-16T02:52:02;10.18;82.53
39401;SHT31;75540;50.000;7.360;2024-02-16T02:54:31;10.13;82.96
39401;SHT31;75540;50.000;7.360;2024-02-16T02:57:01;10.20;82.64
39401;SHT31;75540;50.000;7.360;2024-02-16T02:59:30;10.18;82.45
39401;SHT31;75540;50.000;7.360;2024-02-16T03:01:58;10.22;82.14
39401;SHT31;75540;50.000;7.360;2024-02-16T03:04:26;10.25;82.23
39401;SHT31;75540;50.000;7.360;2024-02-16T03:06:55;10.25;82.31
39401;SHT31;75540;50.000;7.360;2024-02-16T03:09:23;10.27;82.20
39401;SHT31;75540;50.000;7.360;2024-02-16T03:11:55;10.27;82.13
39401;SHT31;75540;50.000;7.360;2024-02-16T03:14:25;10.24;82.11
39401;SHT31;75540;50.000;7.360;2024-02-16T03:16:53;10.31;81.92
39401;SHT31;75540;50.000;7.360;2024-02-16T03:19:21;10.30;81.68
39401;SHT31;75540;50.000;7.360;2024-02-16T03:21:50;10.33;81.82
39401;SHT31;75540;50.000;7.360;2024-02-16T03:24:19;10.34;81.92
39401;SHT31;75540;50.000;7.360;2024-02-16T03:26:47;10.34;81.61
39401;SHT31;75540;50.000;7.360;2024-02-16T03:29:16;10.35;81.83
39401;SHT31;75540;50.000;7.360;2024-02-16T03:31:46;10.31;81.76
39401;SHT31;75540;50.000;7.360;2024-02-16T03:34:14;10.30;81.81
39401;SHT31;75540;50.000;7.360;2024-02-16T03:36:43;10.25;81.90
39401;SHT31;75540;50.000;7.360;2024-02-16T03:39:11;10.27;81.66
39401;SHT31;75540;50.000;7.360;2024-02-16T03:41:40;10.46;81.05
39401;SHT31;75540;50.000;7.360;2024-02-16T03:44:08;10.48;80.85
39401;SHT31;75540;50.000;7.360;2024-02-16T03:46:36;10.41;81.03
39401;SHT31;75540;50.000;7.360;2024-02-16T03:49:06;10.45;80.59
39401;SHT31;75540;50.000;7.360;2024-02-16T03:51:35;10.45;80.59
39401;SHT31;75540;50.000;7.360;2024-02-16T03:54:04;10.52;80.39
39401;SHT31;75540;50.000;7.360;2024-02-16T03:56:32;10.59;79.72
39401;SHT31;75540;50.000;7.360;2024-02-16T03:59:01;10.55;79.50
39401;SHT31;75540;50.000;7.360;2024-02-16T04:01:33;10.54;79.63
39401;SHT31;75540;50.000;7.360;2024-02-16T04:04:01;10.49;79.72
39401;SHT31;75540;50.000;7.360;2024-02-16T04:06:31;10.41;80.14
39401;SHT31;75540;50.000;7.360;2024-02-16T04:09:00;10.31;80.60
39401;SHT31;75540;50.000;7.360;2024-02-16T04:11:28;10.42;80.24
39401;SHT31;75540;50.000;7.360;2024-02-16T04:13:57;10.40;79.98
39401;SHT31;75540;50.000;7.360;2024-02-16T04:16:26;10.34;80.40
39401;SHT31;75540;50.000;7.360;2024-02-16T04:18:54;10.34;80.09
39401;SHT31;75540;50.000;7.360;2024-02-16T04:21:23;10.33;80.18
39401;SHT31;75540;50.000;7.360;2024-02-16T04:23:53;10.33;80.41
39401;SHT31;75540;50.000;7.360;2024-02-16T04:26:21;10.24;80.50
39401;SHT31;75540;50.000;7.360;2024-02-16T04:28:50;10.22;80.47
39401;SHT31;75540;50.000;7.360;2024-02-16T04:31:18;10.25;80.34
39401;SHT31;75540;50.000;7.360;2024-02-16T04:33:46;10.24;80.46
39401;SHT31;75540;50.000;7.360;2024-02-16T04:36:16;10.25;80.31
39401;SHT31;75540;50.000;7.360;2024-02-16T04:38:44;10.22;80.41
39401;SHT31;75540;50.000;7.360;2024-02-16T04:41:15;10.15;80.71
39401;SHT31;75540;50.000;7.360;2024-02-16T04:43:43;10.27;80.52
39401;SHT31;75540;50.000;7.360;2024-02-16T04:46:14;10.27;79.85
39401;SHT31;75540;50.000;7.360;2024-02-16T04:48:42;10.25;79.98
39401;SHT31;75540;50.000;7.360;2024-02-16T04:51:11;10.24;79.78
39401;SHT31;75540;50.000;7.360;2024-02-16T04:53:40;10.28;79.40
39401;SHT31;75540;50.000;7.360;2024-02-16T04:56:08;10.28;79.22
39401;SHT31;75540;50.000;7.360;2024-02-16T04:58:41;10.28;79.05
39401;SHT31;75540;50.000;7.360;2024-02-16T05:01:09;10.21;79.28
39401;SHT31;75540;50.000;7.360;2024-02-16T05:03:38;10.18;79.38
39401;SHT31;75540;50.000;7.360;2024-02-16T05:06:08;10.20;79.26
39401;SHT31;75540;50.000;7.360;2024-02-16T05:08:37;10.14;79.51
39401;SHT31;75540;50.000;7.360;2024-02-16T05:11:05;10.21;79.39
39401;SHT31;75540;50.000;7.360;2024-02-16T05:13:35;10.17;79.20
39401;SHT31;75540;50.000;7.360;2024-02-16T05:16:09;10.10;79.20
39401;SHT31;75540;50.000;7.360;2024-02-16T05:18:38;10.13;79.02
39401;SHT31;75540;50.000;7.360;2024-02-16T05:21:07;10.13;79.07
39401;SHT31;75540;50.000;7.360;2024-02-16T05:23:36;10.08;78.88
39401;SHT31;75540;50.000;7.360;2024-02-16T05:26:05;10.05;79.16
39401;SHT31;75540;50.000;7.360;2024-02-16T05:28:33;10.00;79.19
39401;SHT31;75540;50.000;7.360;2024-02-16T05:31:15;10.07;79.17
39401;SHT31;75540;50.000;7.360;2024-02-16T05:33:48;10.07;79.14
39401;SHT31;75540;50.000;7.360;2024-02-16T05:36:17;10.05;79.09
39401;SHT31;75540;50.000;7.360;2024-02-16T05:38:47;10.10;78.78
39401;SHT31;75540;50.000;7.360;2024-02-16T05:41:16;10.10;78.79
39401;SHT31;75540;50.000;7.360;2024-02-16T05:43:45;10.07;78.96
39401;SHT31;75540;50.000;7.360;2024-02-16T05:46:15;10.03;78.94
39401;SHT31;75540;50.000;7.360;2024-02-16T05:48:43;10.01;78.89
39401;SHT31;75540;50.000;7.360;2024-02-16T05:51:13;10.00;78.89
39401;SHT31;75540;50.000;7.360;2024-02-16T05:53:42;10.00;78.92
39401;SHT31;75540;50.000;7.360;2024-02-16T05:56:11;9.98;78.84
39401;SHT31;75540;50.000;7.360;2024-02-16T05:58:39;10.03;78.65
39401;SHT31;75540;50.000;7.360;2024-02-16T06:01:08;10.05;78.51
39401;SHT31;75540;50.000;7.360;2024-02-16T06:03:42;10.00;78.64
39401;SHT31;75540;50.000;7.360;2024-02-16T06:06:11;10.01;78.58
39401;SHT31;75540;50.000;7.360;2024-02-16T06:08:40;10.05;78.19
39401;SHT31;75540;50.000;7.360;2024-02-16T06:11:08;10.07;78.29
39401;SHT31;75540;50.000;7.360;2024-02-16T06:13:37;10.08;78.26
39401;SHT31;75540;50.000;7.360;2024-02-16T06:16:06;10.00;78.61
39401;SHT31;75540;50.000;7.360;2024-02-16T06:18:35;10.03;78.73
39401;SHT31;75540;50.000;7.360;2024-02-16T06:21:06;10.04;78.50
39401;SHT31;75540;50.000;7.360;2024-02-16T06:23:34;10.01;78.81
39401;SHT31;75540;50.000;7.360;2024-02-16T06:26:03;10.01;78.62
39401;SHT31;75540;50.000;7.360;2024-02-16T06:28:33;10.00;78.75
39401;SHT31;75540;50.000;7.360;2024-02-16T06:31:01;9.95;78.84
39401;SHT31;75540;50.000;7.360;2024-02-16T06:33:31;9.93;78.99
39401;SHT31;75540;50.000;7.360;2024-02-16T06:35:59;9.91;78.99
39401;SHT31;75540;50.000;7.360;2024-02-16T06:38:29;9.84;79.23
39401;SHT31;75540;50.000;7.360;2024-02-16T06:40:57;9.84;79.33
39401;SHT31;75540;50.000;7.360;2024-02-16T06:43:26;9.76;79.34
39401;SHT31;75540;50.000;7.360;2024-02-16T06:45:54;9.84;79.15
39401;SHT31;75540;50.000;7.360;2024-02-16T06:48:23;9.74;79.39
39401;SHT31;75540;50.000;7.360;2024-02-16T06:50:52;9.81;79.25
39401;SHT31;75540;50.000;7.360;2024-02-16T06:53:21;9.71;79.53
39401;SHT31;75540;50.000;7.360;2024-02-16T06:55:51;9.71;79.43
39401;SHT31;75540;50.000;7.360;2024-02-16T06:58:19;9.77;79.42
39401;SHT31;75540;50.000;7.360;2024-02-16T07:00:48;9.74;79.52
39401;SHT31;75540;50.000;7.360;2024-02-16T07:03:16;9.77;79.38
39401;SHT31;75540;50.000;7.360;2024-02-16T07:05:45;9.76;79.46
39401;SHT31;75540;50.000;7.360;2024-02-16T07:08:13;9.79;79.53
39401;SHT31;75540;50.000;7.360;2024-02-16T07:10:42;9.79;79.51
39401;SHT31;75540;50.000;7.360;2024-02-16T07:13:12;9.69;79.78
39401;SHT31;75540;50.000;7.360;2024-02-16T07:15:40;9.73;79.80
39401;SHT31;75540;50.000;7.360;2024-02-16T07:18:09;9.76;79.85
39401;SHT31;75540;50.000;7.360;2024-02-16T07:20:37;9.73;79.73
39401;SHT31;75540;50.000;7.360;2024-02-16T07:23:05;9.76;79.69
39401;SHT31;75540;50.000;7.360;2024-02-16T07:25:33;9.79;79.60
39401;SHT31;75540;50.000;7.360;2024-02-16T07:28:02;9.76;79.65
39401;SHT31;75540;50.000;7.360;2024-02-16T07:30:33;9.81;79.46
39401;SHT31;75540;50.000;7.360;2024-02-16T07:33:09;9.76;79.63
39401;SHT31;75540;50.000;7.360;2024-02-16T07:35:38;9.77;79.67
39401;SHT31;75540;50.000;7.360;2024-02-16T07:38:06;9.83;79.53
39401;SHT31;75540;50.000;7.360;2024-02-16T07:40:35;9.83;79.67
39401;SHT31;75540;50.000;7.360;2024-02-16T07:43:04;9.87;79.39
39401;SHT31;75540;50.000;7.360;2024-02-16T07:45:34;9.89;79.42
39401;SHT31;75540;50.000;7.360;2024-02-16T07:48:03;9.95;79.29
39401;SHT31;75540;50.000;7.360;2024-02-16T07:50:33;9.95;79.56
39401;SHT31;75540;50.000;7.360;2024-02-16T07:53:01;10.00;79.28
39401;SHT31;75540;50.000;7.360;2024-02-16T07:55:29;10.07;79.25
39401;SHT31;75540;50.000;7.360;2024-02-16T07:57:58;10.08;79.30
39401;SHT31;75540;50.000;7.360;2024-02-16T08:00:26;10.13;79.19
39401;SHT31;75540;50.000;7.360;2024-02-16T08:02:57;10.20;79.09
39401;SHT31;75540;50.000;7.360;2024-02-16T08:05:25;10.30;78.70
39401;SHT31;75540;50.000;7.360;2024-02-16T08:07:54;10.30;78.78
39401;SHT31;75540;50.000;7.360;2024-02-16T08:10:23;10.35;78.63
39401;SHT31;75540;50.000;7.360;2024-02-16T08:12:52;10.37;78.60
39401;SHT31;75540;50.000;7.360;2024-02-16T08:15:20;10.35;78.83
39401;SHT31;75540;50.000;7.360;2024-02-16T08:17:52;10.42;78.86
39401;SHT31;75540;50.000;7.360;2024-02-16T08:20:22;10.40;78.85
39401;SHT31;75540;50.000;7.360;2024-02-16T08:22:51;10.52;78.75
39401;SHT31;75540;50.000;7.360;2024-02-16T08:25:19;10.54;78.90
39401;SHT31;75540;50.000;7.360;2024-02-16T08:27:48;10.54;79.16
39401;SHT31;75540;50.000;7.360;2024-02-16T08:30:17;10.65;79.01
39401;SHT31;75540;50.000;7.360;2024-02-16T08:32:45;10.69;79.08
39401;SHT31;75540;50.000;7.360;2024-02-16T08:35:14;10.79;78.90
39401;SHT31;75540;50.000;7.360;2024-02-16T08:37:45;10.86;78.84
39401;SHT31;75540;50.000;7.360;2024-02-16T08:40:14;10.92;79.01
39401;SHT31;75540;50.000;7.360;2024-02-16T08:42:42;11.02;78.89
39401;SHT31;75540;50.000;7.360;2024-02-16T08:45:11;11.02;78.97
39401;SHT31;75540;50.000;7.360;2024-02-16T08:47:40;11.09;78.92
39401;SHT31;75540;50.000;7.360;2024-02-16T08:50:09;11.07;79.24
39401;SHT31;75540;50.000;7.360;2024-02-16T08:52:38;11.24;79.30
39401;SHT31;75540;50.000;7.360;2024-02-16T08:55:08;11.41;79.23
39401;SHT31;75540;50.000;7.360;2024-02-16T08:57:37;11.54;79.09
39401;SHT31;75540;50.000;7.360;2024-02-16T09:00:07;11.64;79.02
39401;SHT31;75540;50.000;7.360;2024-02-16T09:02:36;11.75;78.41
39401;SHT31;75540;50.000;7.360;2024-02-16T09:05:05;11.88;78.12
39401;SHT31;75540;50.000;7.360;2024-02-16T09:07:36;11.95;78.00
39401;SHT31;75540;50.000;7.360;2024-02-16T09:10:05;11.98;77.98
39401;SHT31;75540;50.000;7.360;2024-02-16T09:12:36;12.05;77.63
39401;SHT31;75540;50.000;7.360;2024-02-16T09:15:05;12.12;77.87
39401;SHT31;75540;50.000;7.360;2024-02-16T09:17:33;12.15;77.36
39401;SHT31;75540;50.000;7.360;2024-02-16T09:20:02;12.18;77.19
39401;SHT31;75540;50.000;7.360;2024-02-16T09:22:31;12.17;77.12
39401;SHT31;75540;50.000;7.360;2024-02-16T09:25:04;12.31;77.37
39401;SHT31;75540;50.000;7.360;2024-02-16T09:27:33;12.28;77.28
39401;SHT31;75540;50.000;7.360;2024-02-16T09:30:03;12.29;76.94
39401;SHT31;75540;50.000;7.360;2024-02-16T09:32:31;12.35;77.07
39401;SHT31;75540;50.000;7.360;2024-02-16T09:35:00;12.38;76.51
39401;SHT31;75540;50.000;7.360;2024-02-16T09:37:28;12.45;76.77
39401;SHT31;75540;50.000;7.360;2024-02-16T09:39:57;12.53;76.60
39401;SHT31;75540;50.000;7.360;2024-02-16T09:42:25;12.60;76.36
39401;SHT31;75540;50.000;7.360;2024-02-16T09:44:54;12.69;76.21
39401;SHT31;75540;50.000;7.360;2024-02-16T09:47:24;12.83;75.86
39401;SHT31;75540;50.000;7.360;2024-02-16T09:49:56;12.94;75.75
39401;SHT31;75540;50.000;7.360;2024-02-16T09:52:24;12.97;75.74
39401;SHT31;75540;50.000;7.360;2024-02-16T09:54:53;13.21;75.56
39401;SHT31;75540;50.000;7.360;2024-02-16T09:57:21;13.06;75.90
39401;SHT31;75540;50.000;7.360;2024-02-16T09:59:49;13.08;76.20
39401;SHT31;75540;50.000;7.360;2024-02-16T10:02:18;13.08;76.61
39401;SHT31;75540;50.000;7.360;2024-02-16T10:04:47;12.94;77.10
39401;SHT31;75540;50.000;7.360;2024-02-16T10:07:16;12.90;77.42
39401;SHT31;75540;50.000;7.360;2024-02-16T10:09:45;12.89;77.97
39401;SHT31;75540;50.000;7.360;2024-02-16T10:12:18;12.93;77.94
39401;SHT31;75540;50.000;7.360;2024-02-16T10:14:54;13.02;77.95
39401;SHT31;75540;50.000;7.360;2024-02-16T10:17:22;13.00;77.84
39401;SHT31;75540;50.000;7.360;2024-02-16T10:19:57;13.04;77.83
39401;SHT31;75540;50.000;7.360;2024-02-16T10:22:25;12.90;78.26
39401;SHT31;75540;50.000;7.360;2024-02-16T10:24:53;12.93;78.08
39401;SHT31;75540;50.000;7.360;2024-02-16T10:27:22;12.89;78.40
39401;SHT31;75540;50.000;7.360;2024-02-16T10:29:52;12.92;78.50
39401;SHT31;75540;50.000;7.360;2024-02-16T10:32:22;12.93;78.28
39401;SHT31;75540;50.000;7.360;2024-02-16T10:34:51;12.96;78.29
39401;SHT31;75540;50.000;7.360;2024-02-16T10:37:22;13.00;78.13
39401;SHT31;75540;50.000;7.360;2024-02-16T10:39:52;12.99;78.46
39401;SHT31;75540;50.000;7.360;2024-02-16T10:42:26;12.87;78.59
39401;SHT31;75540;50.000;7.360;2024-02-16T10:44:55;12.83;79.07
39401;SHT31;75540;50.000;7.360;2024-02-16T10:47:24;12.93;78.86
39401;SHT31;75540;50.000;7.360;2024-02-16T10:49:52;12.90;78.97
39401;SHT31;75540;50.000;7.360;2024-02-16T10:52:22;12.86;79.11
39401;SHT31;75540;50.000;7.360;2024-02-16T10:54:52;12.97;78.81
39401;SHT31;75540;50.000;7.360;2024-02-16T10:57:23;13.13;78.57
39401;SHT31;75540;50.000;7.360;2024-02-16T10:59:53;13.18;78.53
39401;SHT31;75540;50.000;7.360;2024-02-16T11:02:22;13.27;78.48
39401;SHT31;75540;50.000;7.360;2024-02-16T11:04:52;13.33;78.37
39401;SHT31;75540;50.000;7.360;2024-02-16T11:07:24;13.31;78.42
39401;SHT31;75540;50.000;7.360;2024-02-16T11:09:53;13.21;78.60
39401;SHT31;75540;50.000;7.360;2024-02-16T11:12:22;13.30;78.30
39401;SHT31;75540;50.000;7.360;2024-02-16T11:14:50;13.31;78.38
39401;SHT31;75540;50.000;7.360;2024-02-16T11:17:23;13.54;77.94
39401;SHT31;75540;50.000;7.360;2024-02-16T11:19:54;13.79;76.57
39401;SHT31;75540;50.000;7.360;2024-02-16T11:22:26;14.37;75.82
39401;SHT31;75540;50.000;7.360;2024-02-16T11:24:55;14.32;75.46
39401;SHT31;75540;50.000;7.360;2024-02-16T11:27:31;14.37;75.09
39401;SHT31;75540;50.000;7.360;2024-02-16T11:30:02;14.22;75.74
39401;SHT31;75540;50.000;7.360;2024-02-16T11:32:32;13.98;76.35
39401;SHT31;75540;50.000;7.360;2024-02-16T11:35:05;13.78;76.19
39401;SHT31;75540;50.000;7.360;2024-02-16T11:37:36;13.79;76.61
39401;SHT31;75540;50.000;7.360;2024-02-16T11:40:06;13.53;77.16
39401;SHT31;75540;50.000;7.360;2024-02-16T11:42:36;13.50;77.60
39401;SHT31;75540;50.000;7.360;2024-02-16T11:45:05;13.46;77.72
39401;SHT31;75540;50.000;7.360;2024-02-16T11:47:34;13.40;77.90
39401;SHT31;75540;50.000;7.360;2024-02-16T11:50:03;13.20;78.32
39401;SHT31;75540;50.000;7.360;2024-02-16T11:52:32;13.06;78.55
39401;SHT31;75540;50.000;7.360;2024-02-16T11:55:04;13.03;78.93
39401;SHT31;75540;50.000;7.360;2024-02-16T11:57:32;13.00;79.43
39401;SHT31;75540;50.000;7.360;2024-02-16T12:00:02;12.99;79.58
39401;SHT31;75540;50.000;7.360;2024-02-16T12:02:35;12.90;79.41
39401;SHT31;75540;50.000;7.360;2024-02-16T12:05:04;12.90;79.22
39401;SHT31;75540;50.000;7.360;2024-02-16T12:07:37;12.92;79.43
39401;SHT31;75540;50.000;7.360;2024-02-16T12:10:10;12.80;79.33
39401;SHT31;75540;50.000;7.360;2024-02-16T12:12:39;12.70;79.84
39401;SHT31;75540;50.000;7.360;2024-02-16T12:15:10;12.67;80.14
39401;SHT31;75540;50.000;7.360;2024-02-16T12:17:40;12.75;80.17
39401;SHT31;75540;50.000;7.360;2024-02-16T12:20:11;12.73;80.01
39401;SHT31;75540;50.000;7.360;2024-02-16T12:22:41;12.65;80.25
39401;SHT31;75540;50.000;7.360;2024-02-16T12:25:11;12.56;80.61
39401;SHT31;75540;50.000;7.360;2024-02-16T12:27:40;12.52;81.27
39401;SHT31;75540;50.000;7.360;2024-02-16T12:30:09;12.53;81.61
39401;SHT31;75540;50.000;7.360;2024-02-16T12:32:38;12.52;81.94
39401;SHT31;75540;50.000;7.360;2024-02-16T12:35:07;12.59;81.99
39401;SHT31;75540;50.000;7.360;2024-02-16T12:37:36;12.66;81.65
39401;SHT31;75540;50.000;7.360;2024-02-16T12:40:06;12.66;81.25
39401;SHT31;75540;50.000;7.360;2024-02-16T12:42:36;12.72;81.43
39401;SHT31;75540;50.000;7.360;2024-02-16T12:45:05;12.77;81.30
39401;SHT31;75540;50.000;7.360;2024-02-16T12:47:34;12.73;81.32
39401;SHT31;75540;50.000;7.360;2024-02-16T12:50:03;12.82;81.33
39401;SHT31;75540;50.000;7.360;2024-02-16T12:52:31;12.89;81.30
39401;SHT31;75540;50.000;7.360;2024-02-16T12:55:12;12.92;80.82
39401;SHT31;75540;50.000;7.360;2024-02-16T12:57:44;13.04;80.76
39401;SHT31;75540;50.000;7.360;2024-02-16T13:00:13;13.10;80.53
39401;SHT31;75540;50.000;7.360;2024-02-16T13:02:42;13.17;80.30
39401;SHT31;75540;50.000;7.360;2024-02-16T13:05:10;13.14;80.21
39401;SHT31;75540;50.000;7.360;2024-02-16T13:07:39;13.11;80.53
39401;SHT31;75540;50.000;7.360;2024-02-16T13:10:09;13.02;80.61
39401;SHT31;75540;50.000;7.360;2024-02-16T13:12:37;13.04;80.78
39401;SHT31;75540;50.000;7.360;2024-02-16T13:15:08;12.99;80.96
39401;SHT31;75540;50.000;7.360;2024-02-16T13:17:54;12.86;81.35
39401;SHT31;75540;50.000;7.360;2024-02-16T13:20:24;12.85;81.61
39401;SHT31;75540;50.000;7.360;2024-02-16T13:22:52;12.76;81.87
39401;SHT31;75540;50.000;7.360;2024-02-16T13:25:21;12.72;82.19
39401;SHT31;75540;50.000;7.360;2024-02-16T13:27:49;12.56;82.72
39401;SHT31;75540;50.000;7.360;2024-02-16T13:30:19;12.45;83.39
39401;SHT31;75540;50.000;7.360;2024-02-16T13:32:47;12.43;84.03
39401;SHT31;75540;50.000;7.360;2024-02-16T13:35:16;12.41;84.17
39401;SHT31;75540;50.000;7.360;2024-02-16T13:37:47;12.28;84.65
39401;SHT31;75540;50.000;7.360;2024-02-16T13:40:16;12.18;85.51
39401;SHT31;75540;50.000;7.360;2024-02-16T13:42:45;12.06;86.17
39401;SHT31;75540;50.000;7.360;2024-02-16T13:45:14;12.10;86.78
39401;SHT31;75540;50.000;7.360;2024-02-16T13:47:44;12.02;87.50
39401;SHT31;75540;50.000;7.360;2024-02-16T13:50:13;12.04;87.90
39401;SHT31;75540;50.000;7.360;2024-02-16T13:52:41;11.91;88.28
39401;SHT31;75540;50.000;7.360;2024-02-16T13:55:11;11.90;88.81
39401;SHT31;75540;50.000;7.360;2024-02-16T13:57:39;11.85;89.22
39401;SHT31;75540;50.000;7.360;2024-02-16T14:00:08;11.81;89.59
39401;SHT31;75540;50.000;7.360;2024-02-16T14:02:40;11.78;89.99
39401;SHT31;75540;50.000;7.360;2024-02-16T14:05:11;11.77;90.13
39401;SHT31;75540;50.000;7.360;2024-02-16T14:07:42;11.64;90.62
39401;SHT31;75540;50.000;7.360;2024-02-16T14:10:23;11.73;90.88
39401;SHT31;75540;50.000;7.360;2024-02-16T14:12:52;11.66;90.84
39401;SHT31;75540;50.000;7.360;2024-02-16T14:15:20;11.67;91.19
39401;SHT31;75540;50.000;7.360;2024-02-16T14:17:48;11.57;91.40
39401;SHT31;75540;50.000;7.360;2024-02-16T14:20:19;11.50;91.79
39401;SHT31;75540;50.000;7.360;2024-02-16T14:22:49;11.50;92.09
39401;SHT31;75540;50.000;7.360;2024-02-16T14:25:18;11.41;92.29
39401;SHT31;75540;50.000;7.360;2024-02-16T14:27:46;11.43;92.60
39401;SHT31;75540;50.000;7.360;2024-02-16T14:30:15;11.37;92.64
39401;SHT31;75540;50.000;7.360;2024-02-16T14:32:43;11.40;92.74
39401;SHT31;75540;50.000;7.360;2024-02-16T14:35:12;11.41;92.85
39401;SHT31;75540;50.000;7.360;2024-02-16T14:37:42;11.40;92.72
39401;SHT31;75540;50.000;7.360;2024-02-16T14:40:11;11.43;92.83
39401;SHT31;75540;50.000;7.360;2024-02-16T14:42:39;11.40;92.78
39401;SHT31;75540;50.000;7.360;2024-02-16T14:45:08;11.43;92.67
39401;SHT31;75540;50.000;7.360;2024-02-16T14:47:47;11.40;92.69
39401;SHT31;75540;50.000;7.360;2024-02-16T14:50:16;11.41;92.73
39401;SHT31;75540;50.000;7.360;2024-02-16T14:52:46;11.39;92.94
39401;SHT31;75540;50.000;7.360;2024-02-16T14:55:15;11.37;92.77
39401;SHT31;75540;50.000;7.360;2024-02-16T14:57:43;11.37;92.89
39401;SHT31;75540;50.000;7.360;2024-02-16T15:00:13;11.34;92.95
39401;SHT31;75540;50.000;7.360;2024-02-16T15:02:42;11.31;93.11
39401;SHT31;75540;50.000;7.360;2024-02-16T15:05:10;11.33;93.09
39401;SHT31;75540;50.000;7.360;2024-02-16T15:07:39;11.34;93.22
39401;SHT31;75540;50.000;7.360;2024-02-16T15:10:09;11.39;93.11
39401;SHT31;75540;50.000;7.360;2024-02-16T15:12:38;11.36;93.32
39401;SHT31;75540;50.000;7.360;2024-02-16T15:15:10;11.34;93.30
39401;SHT31;75540;50.000;7.360;2024-02-16T15:17:40;11.33;93.25
39401;SHT31;75540;50.000;7.360;2024-02-16T15:20:09;11.36;93.16
39401;SHT31;75540;50.000;7.360;2024-02-16T15:22:37;11.31;93.27
39401;SHT31;75540;50.000;7.360;2024-02-16T15:25:20;11.37;93.39
39401;SHT31;75540;50.000;7.360;2024-02-16T15:27:49;11.37;93.34
39401;SHT31;75540;50.000;7.360;2024-02-16T15:30:19;11.37;93.32
39401;SHT31;75540;50.000;7.360;2024-02-16T15:32:48;11.31;93.44
39401;SHT31;75540;50.000;7.360;2024-02-16T15:35:21;11.34;93.32
39401;SHT31;75540;50.000;7.360;2024-02-16T15:37:50;11.33;93.39
39401;SHT31;75540;50.000;7.360;2024-02-16T15:40:20;11.36;93.47
39401;SHT31;75540;50.000;7.360;2024-02-16T15:43:01;11.34;93.42
39401;SHT31;75540;50.000;7.360;2024-02-16T15:45:30;11.36;93.40